createdAt,value
2018-02-04T00:00:46.101Z,-0.80
2018-02-04T00:03:13.840Z,-0.70
2018-02-04T00:05:41.186Z,-0.60
2018-02-04T00:08:08.700Z,-0.50
2018-02-04T00:10:36.821Z,-0.40
2018-02-04T00:13:04.700Z,-0.40
2018-02-04T00:15:32.131Z,-0.40
2018-02-04T00:17:59.421Z,-0.30
2018-02-04T00:20:26.820Z,-0.30
2018-02-04T00:22:54.462Z,-0.30
2018-02-04T00:25:21.924Z,-0.30
2018-02-04T00:27:49.381Z,-0.20
2018-02-04T00:30:16.901Z,-0.20
2018-02-04T00:32:44.541Z,-0.10
2018-02-04T00:35:12.221Z,-0.10
2018-02-04T00:37:39.581Z,-0.10
2018-02-04T00:40:07.121Z,-0.10
2018-02-04T00:42:34.523Z,-0.10
2018-02-04T00:45:01.910Z,-0.10
2018-02-04T00:47:29.601Z,-0.10
2018-02-04T00:49:57.448Z,-0.10
2018-02-04T00:52:24.800Z,-0.10
2018-02-04T00:54:52.500Z,-0.10
2018-02-04T00:57:19.881Z,-0.20
2018-02-04T00:59:47.222Z,-0.20
2018-02-04T01:02:15.204Z,-0.30
2018-02-04T01:04:42.616Z,-0.40
2018-02-04T01:07:10.140Z,-0.30
2018-02-04T01:09:37.500Z,-0.30
2018-02-04T01:12:04.915Z,-0.30
2018-02-04T01:14:32.378Z,-0.30
2018-02-04T01:17:00.198Z,-0.20
2018-02-04T01:19:27.620Z,-0.20
2018-02-04T01:21:55.058Z,-0.20
2018-02-04T01:24:23.438Z,-0.20
2018-02-04T01:26:50.863Z,-0.20
2018-02-04T01:29:18.458Z,-0.20
2018-02-04T01:31:45.879Z,-0.20
2018-02-04T01:34:13.218Z,-0.20
2018-02-04T01:36:40.559Z,-0.20
2018-02-04T01:39:08.100Z,-0.20
2018-02-04T01:41:38.371Z,-0.40
2018-02-04T01:44:05.820Z,-0.40
2018-02-04T01:46:33.120Z,-0.60
2018-02-04T01:49:00.581Z,-0.60
2018-02-04T01:51:28.060Z,-0.60
2018-02-04T01:53:55.580Z,-0.70
2018-02-04T01:56:23.098Z,-0.70
2018-02-04T01:58:50.379Z,-0.70
2018-02-04T02:01:17.858Z,-0.60
2018-02-04T02:03:46.081Z,-0.60
2018-02-04T02:06:13.859Z,-0.70
2018-02-04T02:08:41.339Z,-0.70
2018-02-04T02:11:08.759Z,-0.60
2018-02-04T02:13:36.158Z,-0.60
2018-02-04T02:16:03.539Z,-0.50
2018-02-04T02:18:30.881Z,-0.50
2018-02-04T02:20:58.279Z,-0.50
2018-02-04T02:23:25.608Z,-0.40
2018-02-04T02:25:52.873Z,-0.40
2018-02-04T02:28:20.278Z,-0.30
2018-02-04T02:30:47.679Z,-0.30
2018-02-04T02:33:15.118Z,-0.30
2018-02-04T02:35:43.318Z,-0.30
2018-02-04T02:38:10.598Z,-0.30
2018-02-04T02:40:38.381Z,-0.30
2018-02-04T02:43:05.658Z,-0.20
2018-02-04T02:45:33.087Z,-0.20
2018-02-04T02:48:00.646Z,-0.30
2018-02-04T02:50:27.928Z,-0.30
2018-02-04T02:52:55.379Z,-0.40
2018-02-04T02:55:22.638Z,-0.60
2018-02-04T02:57:50.359Z,-0.70
2018-02-04T03:00:17.978Z,-0.60
2018-02-04T03:02:45.498Z,-0.60
2018-02-04T03:05:13.238Z,-0.60
2018-02-04T03:07:40.578Z,-0.60
2018-02-04T03:10:08.321Z,-0.50
2018-02-04T03:12:36.157Z,-0.50
2018-02-04T03:15:03.619Z,-0.50
2018-02-04T03:17:31.178Z,-0.50
2018-02-04T03:19:58.460Z,-0.40
2018-02-04T03:22:26.399Z,-0.50
2018-02-04T03:24:53.900Z,-0.50
2018-02-04T03:27:21.221Z,-0.70
2018-02-04T03:29:48.601Z,-1.00
2018-02-04T03:32:16.058Z,-1.10
2018-02-04T03:34:43.434Z,-1.10
2018-02-04T03:37:10.839Z,-1.10
2018-02-04T03:39:38.620Z,-1.30
2018-02-04T03:42:06.539Z,-1.30
2018-02-04T03:44:33.960Z,-1.20
2018-02-04T03:47:01.658Z,-1.40
2018-02-04T03:49:29.058Z,-1.40
2018-02-04T03:51:56.678Z,-1.50
2018-02-04T03:54:24.058Z,-1.50
2018-02-04T03:56:52.229Z,-1.80
2018-02-04T03:59:19.929Z,-1.80
2018-02-04T04:01:47.582Z,-2.00
2018-02-04T04:04:15.562Z,-2.10
2018-02-04T04:06:43.004Z,-2.10
2018-02-04T04:09:10.343Z,-2.10
2018-02-04T04:11:37.983Z,-2.20
2018-02-04T04:14:05.703Z,-2.40
2018-02-04T04:16:33.203Z,-2.40
2018-02-04T04:19:00.543Z,-2.30
2018-02-04T04:21:28.043Z,-2.20
2018-02-04T04:23:55.902Z,-2.20
2018-02-04T04:26:23.264Z,-2.30
2018-02-04T04:28:50.622Z,-2.20
2018-02-04T04:31:18.662Z,-2.10
2018-02-04T04:33:45.982Z,-2.00
2018-02-04T04:36:13.724Z,-2.00
2018-02-04T04:38:41.083Z,-2.00
2018-02-04T04:41:09.502Z,-2.10
2018-02-04T04:43:37.343Z,-2.20
2018-02-04T04:46:05.823Z,-2.20
2018-02-04T04:48:33.242Z,-2.20
2018-02-04T04:51:01.822Z,-2.50
2018-02-04T04:53:29.162Z,-2.50
2018-02-04T04:55:56.542Z,-2.50
2018-02-04T04:58:23.922Z,-2.50
2018-02-04T05:00:51.302Z,-2.40
2018-02-04T05:03:19.102Z,-2.30
2018-02-04T05:05:47.342Z,-2.20
2018-02-04T05:08:15.042Z,-2.10
2018-02-04T05:10:42.662Z,-2.20
2018-02-04T05:13:10.502Z,-2.20
2018-02-04T05:15:37.871Z,-2.10
2018-02-04T05:18:05.422Z,-2.20
2018-02-04T05:20:33.262Z,-2.30
2018-02-04T05:23:01.000Z,-2.30
2018-02-04T05:25:28.381Z,-2.40
2018-02-04T05:27:56.534Z,-2.30
2018-02-04T05:30:23.941Z,-2.20
2018-02-04T05:32:51.260Z,-2.10
2018-02-04T05:35:18.781Z,-2.00
2018-02-04T05:37:46.538Z,-2.00
2018-02-04T05:40:14.040Z,-2.00
2018-02-04T05:42:41.421Z,-2.00
2018-02-04T05:45:09.821Z,-1.90
2018-02-04T05:47:37.139Z,-1.90
2018-02-04T05:50:04.480Z,-1.80
2018-02-04T05:52:31.759Z,-1.80
2018-02-04T05:54:59.140Z,-1.80
2018-02-04T05:57:26.740Z,-1.70
2018-02-04T05:59:55.139Z,-1.70
2018-02-04T06:02:22.704Z,-1.80
2018-02-04T06:04:49.983Z,-1.70
2018-02-04T06:07:17.944Z,-1.70
2018-02-04T06:09:46.144Z,-1.70
2018-02-04T06:12:13.544Z,-1.70
2018-02-04T06:14:41.664Z,-1.70
2018-02-04T06:17:09.104Z,-1.70
2018-02-04T06:19:36.506Z,-1.70
2018-02-04T06:22:03.924Z,-1.70
2018-02-04T06:24:32.064Z,-1.70
2018-02-04T06:26:59.584Z,-1.80
2018-02-04T06:29:27.103Z,-1.80
2018-02-04T06:31:54.444Z,-1.80
2018-02-04T06:34:21.823Z,-1.70
2018-02-04T06:36:49.111Z,-1.80
2018-02-04T06:39:16.544Z,-1.80
2018-02-04T06:41:43.986Z,-1.70
2018-02-04T06:44:11.363Z,-1.70
2018-02-04T06:46:38.743Z,-1.70
2018-02-04T06:49:06.024Z,-1.70
2018-02-04T06:51:34.144Z,-1.60
2018-02-04T06:54:01.984Z,-1.60
2018-02-04T06:56:30.343Z,-1.40
2018-02-04T06:58:57.964Z,-1.40
2018-02-04T07:01:25.380Z,-1.20
2018-02-04T07:03:53.688Z,-0.90
2018-02-04T07:06:21.125Z,-1.00
2018-02-04T07:08:48.860Z,-0.80
2018-02-04T07:11:16.320Z,-0.70
2018-02-04T07:13:43.680Z,-0.60
2018-02-04T07:16:11.100Z,-0.50
2018-02-04T07:18:38.482Z,-0.40
2018-02-04T07:21:06.622Z,-0.30
2018-02-04T07:23:34.340Z,-0.20
2018-02-04T07:26:01.662Z,-0.10
2018-02-04T07:28:29.682Z,0.20
2018-02-04T07:30:57.060Z,0.20
2018-02-04T07:33:25.262Z,0.40
2018-02-04T07:35:52.621Z,0.40
2018-02-04T07:38:19.907Z,0.50
2018-02-04T07:40:47.419Z,0.50
2018-02-04T07:43:14.901Z,0.50
2018-02-04T07:45:42.302Z,0.50
2018-02-04T07:48:09.681Z,0.70
2018-02-04T07:50:37.083Z,0.80
2018-02-04T07:53:04.441Z,0.90
2018-02-04T07:55:32.682Z,1.00
2018-02-04T07:58:00.061Z,1.00
2018-02-04T08:00:27.273Z,1.00
2018-02-04T08:02:54.780Z,1.10
2018-02-04T08:05:22.160Z,1.10
2018-02-04T08:07:50.281Z,1.20
2018-02-04T08:10:17.665Z,1.20
2018-02-04T08:12:45.119Z,1.40
2018-02-04T08:15:12.567Z,1.60
2018-02-04T08:17:40.179Z,1.80
2018-02-04T08:20:07.334Z,2.00
2018-02-04T08:22:34.533Z,2.10
2018-02-04T08:25:01.769Z,2.30
2018-02-04T08:27:28.944Z,2.40
2018-02-04T08:29:56.140Z,2.40
2018-02-04T08:32:23.504Z,2.70
2018-02-04T08:34:51.182Z,3.00
2018-02-04T08:37:18.635Z,3.20
2018-02-04T08:39:45.932Z,3.50
2018-02-04T08:42:13.364Z,3.70
2018-02-04T08:44:40.684Z,3.90
2018-02-04T08:47:07.968Z,3.90
2018-02-04T08:49:35.380Z,4.00
2018-02-04T08:52:03.193Z,4.10
2018-02-04T08:54:31.962Z,4.20
2018-02-04T08:56:59.829Z,4.40
2018-02-04T08:59:27.921Z,4.40
2018-02-04T09:01:55.427Z,4.30
2018-02-04T09:04:22.797Z,4.20
2018-02-04T09:06:50.368Z,4.00
2018-02-04T09:09:17.701Z,3.90
2018-02-04T09:11:45.089Z,3.70
2018-02-04T09:14:12.565Z,3.60
2018-02-04T09:16:39.943Z,3.50
2018-02-04T09:19:08.134Z,3.40
2018-02-04T09:21:36.411Z,3.40
2018-02-04T09:24:03.722Z,3.40
2018-02-04T09:26:31.102Z,3.40
2018-02-04T09:28:58.764Z,3.30
2018-02-04T09:31:26.088Z,3.20
2018-02-04T09:33:53.339Z,3.20
2018-02-04T09:36:20.642Z,3.20
2018-02-04T09:38:47.902Z,3.20
2018-02-04T09:41:15.143Z,3.20
2018-02-04T09:43:42.461Z,3.20
2018-02-04T09:46:09.864Z,3.30
2018-02-04T09:48:37.303Z,3.30
2018-02-04T09:51:04.605Z,3.30
2018-02-04T09:53:31.901Z,3.30
2018-02-04T09:55:59.264Z,3.40
2018-02-04T09:58:26.534Z,3.40
2018-02-04T10:00:53.842Z,3.40
2018-02-04T10:03:21.163Z,3.50
2018-02-04T10:05:48.503Z,3.60
2018-02-04T10:08:15.904Z,3.70
2018-02-04T10:10:43.279Z,3.70
2018-02-04T10:13:10.598Z,3.80
2018-02-04T10:15:37.900Z,3.80
2018-02-04T10:18:05.970Z,3.90
2018-02-04T10:20:34.212Z,3.90
2018-02-04T10:23:01.483Z,3.90
2018-02-04T10:25:28.906Z,4.00
2018-02-04T10:27:58.730Z,4.00
2018-02-04T10:30:26.409Z,4.10
2018-02-04T10:32:53.705Z,4.10
2018-02-04T10:35:20.960Z,4.20
2018-02-04T10:37:48.348Z,4.30
2018-02-04T10:40:15.659Z,4.40
2018-02-04T10:42:42.899Z,4.40
2018-02-04T10:45:10.226Z,4.40
2018-02-04T10:47:37.476Z,4.30
2018-02-04T10:50:04.723Z,4.20
2018-02-04T10:52:32.065Z,4.30
2018-02-04T10:54:59.284Z,4.10
2018-02-04T10:57:26.559Z,4.20
2018-02-04T10:59:53.818Z,4.20
2018-02-04T11:02:21.129Z,4.20
2018-02-04T11:04:48.409Z,4.30
2018-02-04T11:07:15.747Z,4.10
2018-02-04T11:09:42.980Z,4.10
2018-02-04T11:12:10.244Z,4.00
2018-02-04T11:14:37.520Z,4.10
2018-02-04T11:17:04.744Z,4.20
2018-02-04T11:19:32.000Z,4.30
2018-02-04T11:21:59.292Z,4.30
2018-02-04T11:24:26.659Z,4.30
2018-02-04T11:26:53.879Z,4.30
2018-02-04T11:29:21.200Z,4.20
2018-02-04T11:31:51.286Z,4.10
2018-02-04T11:34:18.540Z,3.70
2018-02-04T11:36:45.867Z,3.80
2018-02-04T11:39:13.127Z,3.90
2018-02-04T11:41:41.219Z,4.00
2018-02-04T11:44:08.488Z,4.00
2018-02-04T11:46:35.808Z,4.20
2018-02-04T11:49:03.118Z,4.40
2018-02-04T11:51:31.166Z,4.80
2018-02-04T11:53:58.553Z,4.70
2018-02-04T11:56:26.626Z,5.00
2018-02-04T11:58:53.958Z,5.00
2018-02-04T12:01:21.206Z,5.00
2018-02-04T12:03:48.447Z,5.00
2018-02-04T12:06:16.487Z,5.00
2018-02-04T12:08:43.739Z,5.00
2018-02-04T12:11:11.000Z,5.00
2018-02-04T12:13:38.258Z,5.20
2018-02-04T12:16:05.538Z,5.40
2018-02-04T12:18:32.874Z,5.60
2018-02-04T12:21:00.160Z,5.70
2018-02-04T12:23:27.447Z,5.80
2018-02-04T12:25:55.521Z,5.90
2018-02-04T12:28:22.769Z,6.00
2018-02-04T12:30:49.993Z,6.00
2018-02-04T12:33:17.266Z,6.00
2018-02-04T12:35:44.502Z,6.10
2018-02-04T12:38:11.741Z,6.00
2018-02-04T12:40:39.042Z,6.00
2018-02-04T12:43:06.262Z,5.90
2018-02-04T12:45:33.545Z,5.80
2018-02-04T12:48:00.762Z,5.70
2018-02-04T12:50:28.070Z,5.70
2018-02-04T12:52:55.344Z,5.60
2018-02-04T12:55:22.667Z,5.50
2018-02-04T12:57:50.725Z,5.40
2018-02-04T13:00:20.624Z,5.30
2018-02-04T13:02:47.904Z,5.30
2018-02-04T13:05:15.259Z,5.30
2018-02-04T13:07:42.522Z,5.20
2018-02-04T13:10:09.758Z,5.00
2018-02-04T13:12:37.046Z,4.90
2018-02-04T13:15:04.306Z,4.70
2018-02-04T13:17:31.565Z,4.60
2018-02-04T13:19:58.799Z,4.50
2018-02-04T13:22:26.123Z,4.40
2018-02-04T13:24:53.459Z,4.40
2018-02-04T13:27:20.864Z,4.30
2018-02-04T13:29:48.181Z,4.30
2018-02-04T13:32:15.427Z,4.30
2018-02-04T13:34:42.701Z,4.30
2018-02-04T13:37:09.958Z,4.30
2018-02-04T13:39:37.256Z,4.30
2018-02-04T13:42:04.539Z,4.40
2018-02-04T13:44:31.763Z,4.40
2018-02-04T13:46:59.321Z,4.50
2018-02-04T13:49:26.584Z,4.50
2018-02-04T13:51:53.843Z,4.50
2018-02-04T13:54:21.123Z,4.50
2018-02-04T13:56:48.393Z,4.50
2018-02-04T13:59:15.703Z,4.50
2018-02-04T14:01:42.945Z,4.40
2018-02-04T14:04:10.224Z,4.30
2018-02-04T14:06:37.463Z,4.30
2018-02-04T14:09:04.777Z,4.10
2018-02-04T14:11:32.024Z,4.00
2018-02-04T14:13:59.247Z,3.90
2018-02-04T14:16:26.485Z,3.80
2018-02-04T14:18:53.744Z,3.70
2018-02-04T14:21:21.765Z,3.50
2018-02-04T14:23:48.985Z,3.50
2018-02-04T14:26:16.225Z,3.50
2018-02-04T14:28:43.464Z,3.40
2018-02-04T14:31:10.742Z,3.30
2018-02-04T14:33:38.067Z,3.20
2018-02-04T14:36:05.402Z,3.10
2018-02-04T14:38:32.669Z,3.10
2018-02-04T14:40:59.965Z,2.90
2018-02-04T14:43:27.231Z,2.80
2018-02-04T14:45:54.520Z,2.80
2018-02-04T14:48:21.781Z,2.70
2018-02-04T14:50:49.021Z,2.60
2018-02-04T14:53:16.340Z,2.50
2018-02-04T14:55:43.582Z,2.50
2018-02-04T14:58:10.802Z,2.50
2018-02-04T15:00:38.083Z,2.40
2018-02-04T15:03:05.570Z,2.40
2018-02-04T15:05:32.863Z,2.30
2018-02-04T15:08:00.201Z,2.20
2018-02-04T15:10:29.086Z,2.10
2018-02-04T15:12:56.500Z,2.10
2018-02-04T15:15:23.879Z,2.10
2018-02-04T15:17:51.302Z,2.10
2018-02-04T15:20:18.661Z,2.10
2018-02-04T15:22:46.440Z,2.10
2018-02-04T15:25:13.898Z,2.00
2018-02-04T15:27:41.240Z,2.00
2018-02-04T15:30:08.691Z,1.90
2018-02-04T15:32:36.081Z,1.80
2018-02-04T15:35:03.287Z,1.80
2018-02-04T15:37:30.624Z,1.70
2018-02-04T15:39:58.825Z,1.60
2018-02-04T15:42:26.084Z,1.60
2018-02-04T15:44:53.443Z,1.60
2018-02-04T15:47:20.726Z,1.60
2018-02-04T15:49:48.003Z,1.60
2018-02-04T15:52:15.363Z,1.50
2018-02-04T15:54:42.720Z,1.50
2018-02-04T15:57:10.600Z,1.40
2018-02-04T15:59:37.948Z,1.40
2018-02-04T16:02:05.340Z,1.30
2018-02-04T16:04:32.742Z,1.20
2018-02-04T16:07:00.863Z,1.20
2018-02-04T16:09:28.120Z,1.20
2018-02-04T16:11:55.501Z,1.20
2018-02-04T16:14:23.001Z,1.20
2018-02-04T16:16:50.401Z,1.20
2018-02-04T16:19:17.761Z,1.20
2018-02-04T16:21:45.281Z,1.20
2018-02-04T16:24:13.814Z,1.20
2018-02-04T16:26:41.261Z,1.20
2018-02-04T16:29:08.560Z,1.20
2018-02-04T16:31:36.062Z,1.20
2018-02-04T16:34:03.381Z,1.20
2018-02-04T16:36:31.041Z,1.20
2018-02-04T16:38:58.400Z,1.20
2018-02-04T16:41:25.849Z,1.20
2018-02-04T16:43:53.202Z,1.20
2018-02-04T16:46:20.602Z,1.30
2018-02-04T16:48:47.923Z,1.30
2018-02-04T16:51:15.428Z,1.30
2018-02-04T16:53:42.820Z,1.30
2018-02-04T16:56:10.941Z,1.30
2018-02-04T16:58:38.361Z,1.30
2018-02-04T17:01:05.808Z,1.30
2018-02-04T17:03:33.166Z,1.30
2018-02-04T17:06:00.705Z,1.30
2018-02-04T17:08:28.021Z,1.20
2018-02-04T17:10:55.406Z,1.00
2018-02-04T17:13:23.854Z,0.80
2018-02-04T17:15:51.188Z,0.80
2018-02-04T17:18:18.640Z,0.90
2018-02-04T17:20:46.047Z,0.80
2018-02-04T17:23:13.407Z,0.70
2018-02-04T17:25:40.827Z,0.60
2018-02-04T17:28:08.178Z,0.60
2018-02-04T17:30:35.626Z,0.50
2018-02-04T17:33:02.949Z,0.50
2018-02-04T17:35:30.629Z,0.40
2018-02-04T17:38:00.005Z,0.50
2018-02-04T17:40:27.462Z,0.50
2018-02-04T17:42:54.803Z,0.50
2018-02-04T17:45:22.443Z,0.60
2018-02-04T17:47:50.668Z,0.60
2018-02-04T17:50:18.123Z,0.60
2018-02-04T17:52:45.512Z,0.60
2018-02-04T17:55:12.870Z,0.50
2018-02-04T17:57:41.019Z,0.50
2018-02-04T18:00:08.462Z,0.50
2018-02-04T18:02:36.681Z,0.20
2018-02-04T18:05:04.734Z,-0.10
2018-02-04T18:07:32.081Z,-0.10
2018-02-04T18:09:59.446Z,-0.40
2018-02-04T18:12:26.759Z,-0.50
2018-02-04T18:14:57.433Z,-0.60
2018-02-04T18:17:25.252Z,-0.60
2018-02-04T18:19:52.701Z,-0.80
2018-02-04T18:22:20.762Z,-1.00
2018-02-04T18:24:48.744Z,-1.10
2018-02-04T18:27:16.635Z,-1.20
2018-02-04T18:29:44.306Z,-1.20
2018-02-04T18:32:11.968Z,-1.10
2018-02-04T18:34:39.760Z,-1.00
2018-02-04T18:37:07.927Z,-0.90
2018-02-04T18:39:35.605Z,-0.90
2018-02-04T18:42:02.994Z,-0.90
2018-02-04T18:44:30.486Z,-0.90
2018-02-04T18:46:57.907Z,-1.00
2018-02-04T18:49:27.318Z,-1.10
2018-02-04T18:51:54.956Z,-1.10
2018-02-04T18:54:24.828Z,-1.20
2018-02-04T18:56:55.603Z,-1.50
2018-02-04T18:59:23.790Z,-1.50
2018-02-04T19:01:54.500Z,-1.70
2018-02-04T19:04:21.901Z,-1.70
2018-02-04T19:06:52.181Z,-1.70
2018-02-04T19:09:20.163Z,-1.80
2018-02-04T19:11:59.784Z,-1.50
2018-02-04T19:14:27.174Z,-1.40
2018-02-04T19:16:55.462Z,-1.40
2018-02-04T19:19:23.240Z,-1.50
2018-02-04T19:21:55.260Z,-1.50
2018-02-04T19:24:23.759Z,-1.60
2018-02-04T19:26:52.203Z,-1.70
2018-02-04T19:29:19.822Z,-1.80
2018-02-04T19:31:48.086Z,-1.70
2018-02-04T19:34:15.460Z,-1.80
2018-02-04T19:36:42.998Z,-1.80
2018-02-04T19:39:11.902Z,-1.90
2018-02-04T19:41:39.319Z,-2.00
2018-02-04T19:44:07.464Z,-1.90
2018-02-04T19:46:34.943Z,-1.80
2018-02-04T19:49:03.218Z,-1.80
2018-02-04T19:51:31.433Z,-2.00
2018-02-04T19:53:59.005Z,-2.20
2018-02-04T19:56:26.302Z,-2.20
2018-02-04T19:58:53.698Z,-2.40
2018-02-04T20:01:21.245Z,-2.50
2018-02-04T20:03:48.622Z,-2.50
2018-02-04T20:06:15.905Z,-2.50
2018-02-04T20:08:43.238Z,-2.60
2018-02-04T20:11:11.300Z,-2.30
2018-02-04T20:13:40.113Z,-2.30
2018-02-04T20:16:08.018Z,-2.00
2018-02-04T20:18:35.382Z,-1.80
2018-02-04T20:21:03.390Z,-1.60
2018-02-04T20:23:31.585Z,-1.50
2018-02-04T20:25:58.987Z,-1.40
2018-02-04T20:28:26.529Z,-1.30
2018-02-04T20:30:53.960Z,-1.40
2018-02-04T20:33:24.017Z,-1.40
2018-02-04T20:35:53.364Z,-1.50
2018-02-04T20:38:21.068Z,-1.50
2018-02-04T20:40:48.378Z,-1.50
2018-02-04T20:43:17.644Z,-1.60
2018-02-04T20:45:45.187Z,-1.60
2018-02-04T20:48:12.987Z,-1.60
2018-02-04T20:50:40.663Z,-1.70
2018-02-04T20:53:08.105Z,-1.80
2018-02-04T20:55:35.459Z,-1.90
2018-02-04T20:58:03.149Z,-1.90
2018-02-04T21:00:31.281Z,-2.00
2018-02-04T21:03:00.385Z,-2.10
2018-02-04T21:05:27.703Z,-2.00
2018-02-04T21:07:55.151Z,-1.90
2018-02-04T21:10:22.515Z,-1.90
2018-02-04T21:12:49.805Z,-1.90
2018-02-04T21:15:17.108Z,-1.80
2018-02-04T21:17:45.112Z,-1.70
2018-02-04T21:20:12.567Z,-1.70
2018-02-04T21:22:40.665Z,-1.70
2018-02-04T21:25:08.066Z,-1.60
2018-02-04T21:27:35.410Z,-1.60
2018-02-04T21:30:02.762Z,-1.60
2018-02-04T21:32:30.246Z,-1.50
2018-02-04T21:34:57.803Z,-1.50
2018-02-04T21:37:25.222Z,-1.40
2018-02-04T21:39:52.586Z,-1.40
2018-02-04T21:42:19.904Z,-1.40
2018-02-04T21:44:47.423Z,-1.40
2018-02-04T21:47:15.644Z,-1.40
2018-02-04T21:49:43.418Z,-1.40
2018-02-04T21:52:10.659Z,-1.40
2018-02-04T21:54:38.082Z,-1.40
2018-02-04T21:57:05.485Z,-1.40
2018-02-04T21:59:33.348Z,-1.60
2018-02-04T22:02:00.782Z,-1.90
2018-02-04T22:04:28.098Z,-2.10
2018-02-04T22:06:55.542Z,-2.20
2018-02-04T22:09:22.941Z,-2.10
2018-02-04T22:11:50.656Z,-2.00
2018-02-04T22:14:18.023Z,-1.90
2018-02-04T22:16:46.422Z,-1.80
2018-02-04T22:19:14.006Z,-1.80
2018-02-04T22:21:41.422Z,-1.80
2018-02-04T22:24:08.810Z,-2.00
2018-02-04T22:26:36.684Z,-2.10
2018-02-04T22:29:04.292Z,-2.20
2018-02-04T22:31:31.743Z,-2.10
2018-02-04T22:33:59.142Z,-2.00
2018-02-04T22:36:26.599Z,-1.90
2018-02-04T22:38:54.060Z,-1.70
2018-02-04T22:41:22.940Z,-1.60
2018-02-04T22:43:50.642Z,-1.60
2018-02-04T22:46:18.120Z,-1.50
2018-02-04T22:48:45.520Z,-1.50
2018-02-04T22:51:13.300Z,-1.50
2018-02-04T22:53:41.221Z,-1.50
2018-02-04T22:56:08.700Z,-1.50
2018-02-04T22:58:36.462Z,-1.40
2018-02-04T23:01:04.021Z,-1.40
2018-02-04T23:03:31.865Z,-1.30
2018-02-04T23:05:59.461Z,-1.30
2018-02-04T23:08:26.881Z,-1.30
2018-02-04T23:10:54.582Z,-1.30
2018-02-04T23:13:22.321Z,-1.40
2018-02-04T23:15:49.819Z,-1.30
2018-02-04T23:18:17.201Z,-1.30
2018-02-04T23:20:45.004Z,-1.40
2018-02-04T23:23:13.365Z,-1.30
2018-02-04T23:25:40.742Z,-1.40
2018-02-04T23:28:08.481Z,-1.40
2018-02-04T23:30:35.860Z,-1.40
2018-02-04T23:33:03.740Z,-1.40
2018-02-04T23:35:31.161Z,-1.30
2018-02-04T23:37:58.541Z,-1.30
2018-02-04T23:40:26.726Z,-1.30
2018-02-04T23:42:54.141Z,-1.30
2018-02-04T23:45:22.201Z,-1.30
2018-02-04T23:47:49.502Z,-1.30
2018-02-04T23:50:16.901Z,-1.30
2018-02-04T23:52:44.523Z,-1.20
2018-02-04T23:55:12.004Z,-1.20
2018-02-04T23:57:39.444Z,-1.20
